sensor_id;sensor_type;location;lat;lon;timestamp;temperature;humidity
9544;DHT22;30418;51.45933468;7.33152330;2023-10-09T00:00:34;18.40;67.70
9544;DHT22;30418;51.45933468;7.33152330;2023-10-09T00:03:29;18.40;67.70
9544;DHT22;30418;51.45933468;7.33152330;2023-10-09T00:05:58;18.40;67.70
9544;DHT22;30418;51.45933468;7.33152330;2023-10-09T00:08:31;18.40;67.70
9544;DHT22;30418;51.45933468;7.33152330;2023-10-09T00:11:01;18.40;67.80
9544;DHT22;30418;51.45933468;7.33152330;2023-10-09T00:13:44;18.40;67.80
9544;DHT22;30418;51.45933468;7.33152330;2023-10-09T00:16:21;18.40;67.80
9544;DHT22;30418;51.45933468;7.33152330;2023-10-09T00:19:03;18.40;67.90
9544;DHT22;30418;51.45933468;7.33152330;2023-10-09T00:21:42;18.40;67.90
9544;DHT22;30418;51.45933468;7.33152330;2023-10-09T00:24:10;18.40;68.10
9544;DHT22;30418;51.45933468;7.33152330;2023-10-09T00:26:45;18.40;68.20
9544;DHT22;30418;51.45933468;7.33152330;2023-10-09T00:29:14;18.40;68.40
9544;DHT22;30418;51.45933468;7.33152330;2023-10-09T00:31:50;18.40;68.40
9544;DHT22;30418;51.45933468;7.33152330;2023-10-09T00:34:23;18.40;68.40
9544;DHT22;30418;51.45933468;7.33152330;2023-10-09T00:36:53;18.40;68.50
9544;DHT22;30418;51.45933468;7.33152330;2023-10-09T00:39:23;18.50;68.70
9544;DHT22;30418;51.45933468;7.33152330;2023-10-09T00:42:11;18.50;68.80
9544;DHT22;30418;51.45933468;7.33152330;2023-10-09T00:44:41;18.50;68.90
9544;DHT22;30418;51.45933468;7.33152330;2023-10-09T00:47:12;18.50;68.90
9544;DHT22;30418;51.45933468;7.33152330;2023-10-09T00:49:50;18.50;69.00
9544;DHT22;30418;51.45933468;7.33152330;2023-10-09T00:52:29;18.50;69.00
9544;DHT22;30418;51.45933468;7.33152330;2023-10-09T00:55:00;18.50;69.10
9544;DHT22;30418;51.45933468;7.33152330;2023-10-09T00:57:34;18.50;69.10
9544;DHT22;30418;51.45933468;7.33152330;2023-10-09T01:00:08;18.60;69.30
9544;DHT22;30418;51.45933468;7.33152330;2023-10-09T01:02:56;18.50;69.20
9544;DHT22;30418;51.45933468;7.33152330;2023-10-09T01:05:38;18.50;69.10
9544;DHT22;30418;51.45933468;7.33152330;2023-10-09T01:08:12;18.50;69.20
9544;DHT22;30418;51.45933468;7.33152330;2023-10-09T01:10:52;18.50;69.20
9544;DHT22;30418;51.45933468;7.33152330;2023-10-09T01:13:25;18.60;69.30
9544;DHT22;30418;51.45933468;7.33152330;2023-10-09T01:16:06;18.60;69.40
9544;DHT22;30418;51.45933468;7.33152330;2023-10-09T01:18:40;18.60;69.40
9544;DHT22;30418;51.45933468;7.33152330;2023-10-09T01:21:10;18.60;69.40
9544;DHT22;30418;51.45933468;7.33152330;2023-10-09T01:23:42;18.60;69.40
9544;DHT22;30418;51.45933468;7.33152330;2023-10-09T01:26:30;18.70;69.50
9544;DHT22;30418;51.45933468;7.33152330;2023-10-09T01:29:07;18.70;69.50
9544;DHT22;30418;51.45933468;7.33152330;2023-10-09T01:31:38;18.60;69.40
9544;DHT22;30418;51.45933468;7.33152330;2023-10-09T01:34:11;18.70;69.50
9544;DHT22;30418;51.45933468;7.33152330;2023-10-09T01:36:42;18.70;69.50
9544;DHT22;30418;51.45933468;7.33152330;2023-10-09T01:39:11;18.70;69.50
9544;DHT22;30418;51.45933468;7.33152330;2023-10-09T01:41:51;18.70;69.50
9544;DHT22;30418;51.45933468;7.33152330;2023-10-09T01:44:26;18.60;69.40
9544;DHT22;30418;51.45933468;7.33152330;2023-10-09T01:46:57;18.70;69.50
9544;DHT22;30418;51.45933468;7.33152330;2023-10-09T01:49:26;18.70;69.50
9544;DHT22;30418;51.45933468;7.33152330;2023-10-09T01:52:02;18.70;69.50
9544;DHT22;30418;51.45933468;7.33152330;2023-10-09T01:54:38;18.70;69.50
9544;DHT22;30418;51.45933468;7.33152330;2023-10-09T01:57:08;18.70;69.60
9544;DHT22;30418;51.45933468;7.33152330;2023-10-09T01:59:41;18.70;69.50
9544;DHT22;30418;51.45933468;7.33152330;2023-10-09T02:02:13;18.70;69.50
9544;DHT22;30418;51.45933468;7.33152330;2023-10-09T02:04:55;18.70;69.50
9544;DHT22;30418;51.45933468;7.33152330;2023-10-09T02:07:36;18.70;69.50
9544;DHT22;30418;51.45933468;7.33152330;2023-10-09T02:10:20;18.70;69.50
9544;DHT22;30418;51.45933468;7.33152330;2023-10-09T02:13:00;18.70;69.50
9544;DHT22;30418;51.45933468;7.33152330;2023-10-09T02:15:35;18.70;69.40
9544;DHT22;30418;51.45933468;7.33152330;2023-10-09T02:18:19;18.70;69.40
9544;DHT22;30418;51.45933468;7.33152330;2023-10-09T02:21:07;18.70;69.40
9544;DHT22;30418;51.45933468;7.33152330;2023-10-09T02:23:42;18.70;69.40
9544;DHT22;30418;51.45933468;7.33152330;2023-10-09T02:26:19;18.70;69.30
9544;DHT22;30418;51.45933468;7.33152330;2023-10-09T02:28:54;18.70;69.50
9544;DHT22;30418;51.45933468;7.33152330;2023-10-09T02:31:28;18.70;69.40
9544;DHT22;30418;51.45933468;7.33152330;2023-10-09T02:34:04;18.70;70.30
9544;DHT22;30418;51.45933468;7.33152330;2023-10-09T02:36:34;18.70;69.50
9544;DHT22;30418;51.45933468;7.33152330;2023-10-09T02:39:06;18.70;69.40
9544;DHT22;30418;51.45933468;7.33152330;2023-10-09T02:41:50;18.70;69.50
9544;DHT22;30418;51.45933468;7.33152330;2023-10-09T02:44:20;18.70;69.60
9544;DHT22;30418;51.45933468;7.33152330;2023-10-09T02:46:53;18.70;69.50
9544;DHT22;30418;51.45933468;7.33152330;2023-10-09T02:49:25;18.70;69.60
9544;DHT22;30418;51.45933468;7.33152330;2023-10-09T02:51:54;18.70;69.70
9544;DHT22;30418;51.45933468;7.33152330;2023-10-09T02:54:23;18.70;69.70
9544;DHT22;30418;51.45933468;7.33152330;2023-10-09T02:57:04;18.70;69.70
9544;DHT22;30418;51.45933468;7.33152330;2023-10-09T02:59:43;18.70;69.70
9544;DHT22;30418;51.45933468;7.33152330;2023-10-09T03:02:12;18.70;69.70
9544;DHT22;30418;51.45933468;7.33152330;2023-10-09T03:04:41;18.70;69.70
9544;DHT22;30418;51.45933468;7.33152330;2023-10-09T03:07:09;18.70;69.70
9544;DHT22;30418;51.45933468;7.33152330;2023-10-09T03:09:41;18.70;69.80
9544;DHT22;30418;51.45933468;7.33152330;2023-10-09T03:12:11;18.70;69.80
9544;DHT22;30418;51.45933468;7.33152330;2023-10-09T03:14:40;18.70;69.90
9544;DHT22;30418;51.45933468;7.33152330;2023-10-09T03:17:10;18.70;69.80
9544;DHT22;30418;51.45933468;7.33152330;2023-10-09T03:19:40;18.70;69.80
9544;DHT22;30418;51.45933468;7.33152330;2023-10-09T03:22:11;18.70;69.90
9544;DHT22;30418;51.45933468;7.33152330;2023-10-09T03:24:40;18.70;69.90
9544;DHT22;30418;51.45933468;7.33152330;2023-10-09T03:27:17;18.70;69.90
9544;DHT22;30418;51.45933468;7.33152330;2023-10-09T03:29:46;18.70;69.90
9544;DHT22;30418;51.45933468;7.33152330;2023-10-09T03:32:21;18.70;69.90
9544;DHT22;30418;51.45933468;7.33152330;2023-10-09T03:34:49;18.70;69.90
9544;DHT22;30418;51.45933468;7.33152330;2023-10-09T03:37:18;18.70;69.90
9544;DHT22;30418;51.45933468;7.33152330;2023-10-09T03:40:01;18.70;69.90
9544;DHT22;30418;51.45933468;7.33152330;2023-10-09T03:42:31;18.70;69.90
9544;DHT22;30418;51.45933468;7.33152330;2023-10-09T03:45:04;18.70;70.00
9544;DHT22;30418;51.45933468;7.33152330;2023-10-09T03:47:40;18.70;70.00
9544;DHT22;30418;51.45933468;7.33152330;2023-10-09T03:50:10;18.70;70.00
9544;DHT22;30418;51.45933468;7.33152330;2023-10-09T03:52:53;18.70;70.00
9544;DHT22;30418;51.45933468;7.33152330;2023-10-09T03:55:22;18.70;69.90
9544;DHT22;30418;51.45933468;7.33152330;2023-10-09T03:57:56;18.70;69.90
9544;DHT22;30418;51.45933468;7.33152330;2023-10-09T04:00:28;18.70;70.00
9544;DHT22;30418;51.45933468;7.33152330;2023-10-09T04:02:59;18.70;70.10
9544;DHT22;30418;51.45933468;7.33152330;2023-10-09T04:05:29;18.70;70.00
9544;DHT22;30418;51.45933468;7.33152330;2023-10-09T04:07:58;18.70;70.00
9544;DHT22;30418;51.45933468;7.33152330;2023-10-09T04:10:28;18.70;70.10
9544;DHT22;30418;51.45933468;7.33152330;2023-10-09T04:13:24;18.70;70.00
9544;DHT22;30418;51.45933468;7.33152330;2023-10-09T04:16:01;18.70;70.10
9544;DHT22;30418;51.45933468;7.33152330;2023-10-09T04:18:51;18.70;70.10
9544;DHT22;30418;51.45933468;7.33152330;2023-10-09T04:21:23;18.70;70.00
9544;DHT22;30418;51.45933468;7.33152330;2023-10-09T04:24:04;18.70;70.10
9544;DHT22;30418;51.45933468;7.33152330;2023-10-09T04:26:50;18.70;70.10
9544;DHT22;30418;51.45933468;7.33152330;2023-10-09T04:29:26;18.70;70.10
9544;DHT22;30418;51.45933468;7.33152330;2023-10-09T04:31:55;18.70;70.10
9544;DHT22;30418;51.45933468;7.33152330;2023-10-09T04:34:27;18.70;70.10
9544;DHT22;30418;51.45933468;7.33152330;2023-10-09T04:37:03;18.70;70.10
9544;DHT22;30418;51.45933468;7.33152330;2023-10-09T04:40:04;18.70;70.10
9544;DHT22;30418;51.45933468;7.33152330;2023-10-09T04:42:39;18.70;70.10
9544;DHT22;30418;51.45933468;7.33152330;2023-10-09T04:45:26;18.70;70.00
9544;DHT22;30418;51.45933468;7.33152330;2023-10-09T04:48:08;18.70;70.10
9544;DHT22;30418;51.45933468;7.33152330;2023-10-09T04:50:37;18.70;70.10
9544;DHT22;30418;51.45933468;7.33152330;2023-10-09T04:53:23;18.70;70.10
9544;DHT22;30418;51.45933468;7.33152330;2023-10-09T04:55:51;18.70;70.00
9544;DHT22;30418;51.45933468;7.33152330;2023-10-09T04:58:23;18.70;70.00
9544;DHT22;30418;51.45933468;7.33152330;2023-10-09T05:00:54;18.70;70.00
9544;DHT22;30418;51.45933468;7.33152330;2023-10-09T05:03:38;18.70;70.00
9544;DHT22;30418;51.45933468;7.33152330;2023-10-09T05:06:13;18.70;70.10
9544;DHT22;30418;51.45933468;7.33152330;2023-10-09T05:08:58;18.70;70.10
9544;DHT22;30418;51.45933468;7.33152330;2023-10-09T05:11:36;18.70;70.10
9544;DHT22;30418;51.45933468;7.33152330;2023-10-09T05:14:22;18.70;70.00
9544;DHT22;30418;51.45933468;7.33152330;2023-10-09T05:17:07;18.70;70.00
9544;DHT22;30418;51.45933468;7.33152330;2023-10-09T05:19:43;18.70;70.10
9544;DHT22;30418;51.45933468;7.33152330;2023-10-09T05:22:43;18.70;70.00
9544;DHT22;30418;51.45933468;7.33152330;2023-10-09T05:25:25;18.70;70.00
9544;DHT22;30418;51.45933468;7.33152330;2023-10-09T05:28:11;18.70;70.10
9544;DHT22;30418;51.45933468;7.33152330;2023-10-09T05:31:06;18.70;70.00
9544;DHT22;30418;51.45933468;7.33152330;2023-10-09T05:33:37;18.70;70.00
9544;DHT22;30418;51.45933468;7.33152330;2023-10-09T05:36:06;18.70;70.10
9544;DHT22;30418;51.45933468;7.33152330;2023-10-09T05:38:58;18.70;70.10
9544;DHT22;30418;51.45933468;7.33152330;2023-10-09T05:41:27;18.70;70.00
9544;DHT22;30418;51.45933468;7.33152330;2023-10-09T05:44:14;18.70;70.10
9544;DHT22;30418;51.45933468;7.33152330;2023-10-09T05:47:11;18.70;70.10
9544;DHT22;30418;51.45933468;7.33152330;2023-10-09T05:50:08;18.70;70.00
9544;DHT22;30418;51.45933468;7.33152330;2023-10-09T05:53:02;18.70;70.10
9544;DHT22;30418;51.45933468;7.33152330;2023-10-09T05:55:44;18.70;70.10
9544;DHT22;30418;51.45933468;7.33152330;2023-10-09T05:58:30;18.70;70.20
9544;DHT22;30418;51.45933468;7.33152330;2023-10-09T06:01:42;18.70;70.20
9544;DHT22;30418;51.45933468;7.33152330;2023-10-09T06:04:36;18.70;70.20
9544;DHT22;30418;51.45933468;7.33152330;2023-10-09T06:07:23;18.70;70.20
9544;DHT22;30418;51.45933468;7.33152330;2023-10-09T06:10:08;18.70;70.20
9544;DHT22;30418;51.45933468;7.33152330;2023-10-09T06:12:47;18.70;70.20
9544;DHT22;30418;51.45933468;7.33152330;2023-10-09T06:15:22;18.70;70.30
9544;DHT22;30418;51.45933468;7.33152330;2023-10-09T06:18:07;18.70;70.40
9544;DHT22;30418;51.45933468;7.33152330;2023-10-09T06:20:50;18.80;70.50
9544;DHT22;30418;51.45933468;7.33152330;2023-10-09T06:23:33;18.70;70.40
9544;DHT22;30418;51.45933468;7.33152330;2023-10-09T06:26:22;18.80;70.60
9544;DHT22;30418;51.45933468;7.33152330;2023-10-09T06:28:53;18.80;70.50
9544;DHT22;30418;51.45933468;7.33152330;2023-10-09T06:31:35;18.70;70.40
9544;DHT22;30418;51.45933468;7.33152330;2023-10-09T06:34:26;18.80;70.60
9544;DHT22;30418;51.45933468;7.33152330;2023-10-09T06:37:00;18.80;70.60
9544;DHT22;30418;51.45933468;7.33152330;2023-10-09T06:39:36;18.80;70.60
9544;DHT22;30418;51.45933468;7.33152330;2023-10-09T06:42:33;18.80;70.60
9544;DHT22;30418;51.45933468;7.33152330;2023-10-09T06:45:14;18.80;70.50
9544;DHT22;30418;51.45933468;7.33152330;2023-10-09T06:47:47;18.80;70.50
9544;DHT22;30418;51.45933468;7.33152330;2023-10-09T06:50:23;18.80;70.70
9544;DHT22;30418;51.45933468;7.33152330;2023-10-09T06:53:14;18.80;70.50
9544;DHT22;30418;51.45933468;7.33152330;2023-10-09T06:55:55;18.80;70.60
9544;DHT22;30418;51.45933468;7.33152330;2023-10-09T06:58:32;18.90;70.80
9544;DHT22;30418;51.45933468;7.33152330;2023-10-09T07:01:09;18.90;70.70
9544;DHT22;30418;51.45933468;7.33152330;2023-10-09T07:04:07;18.80;70.70
9544;DHT22;30418;51.45933468;7.33152330;2023-10-09T07:06:46;18.90;70.70
9544;DHT22;30418;51.45933468;7.33152330;2023-10-09T07:09:19;18.90;70.70
9544;DHT22;30418;51.45933468;7.33152330;2023-10-09T07:11:50;18.90;70.80
9544;DHT22;30418;51.45933468;7.33152330;2023-10-09T07:14:27;18.90;70.80
9544;DHT22;30418;51.45933468;7.33152330;2023-10-09T07:17:19;18.90;70.80
9544;DHT22;30418;51.45933468;7.33152330;2023-10-09T07:19:54;19.00;70.90
9544;DHT22;30418;51.45933468;7.33152330;2023-10-09T07:22:40;18.90;70.90
9544;DHT22;30418;51.45933468;7.33152330;2023-10-09T07:25:21;19.00;70.90
9544;DHT22;30418;51.45933468;7.33152330;2023-10-09T07:27:58;19.00;71.00
9544;DHT22;30418;51.45933468;7.33152330;2023-10-09T07:30:29;19.00;71.00
9544;DHT22;30418;51.45933468;7.33152330;2023-10-09T07:33:05;19.00;70.90
9544;DHT22;30418;51.45933468;7.33152330;2023-10-09T07:35:45;19.00;71.00
9544;DHT22;30418;51.45933468;7.33152330;2023-10-09T07:38:25;19.10;71.00
9544;DHT22;30418;51.45933468;7.33152330;2023-10-09T07:40:56;19.10;71.00
9544;DHT22;30418;51.45933468;7.33152330;2023-10-09T07:43:49;19.00;70.90
9544;DHT22;30418;51.45933468;7.33152330;2023-10-09T07:46:18;19.10;71.10
9544;DHT22;30418;51.45933468;7.33152330;2023-10-09T07:49:02;19.00;70.90
9544;DHT22;30418;51.45933468;7.33152330;2023-10-09T07:51:37;19.10;71.00
9544;DHT22;30418;51.45933468;7.33152330;2023-10-09T07:54:06;19.10;71.20
9544;DHT22;30418;51.45933468;7.33152330;2023-10-09T07:56:35;19.10;71.20
9544;DHT22;30418;51.45933468;7.33152330;2023-10-09T07:59:10;19.10;71.20
9544;DHT22;30418;51.45933468;7.33152330;2023-10-09T08:01:40;19.20;71.30
9544;DHT22;30418;51.45933468;7.33152330;2023-10-09T08:04:19;19.20;71.30
9544;DHT22;30418;51.45933468;7.33152330;2023-10-09T08:07:05;19.20;71.20
9544;DHT22;30418;51.45933468;7.33152330;2023-10-09T08:09:54;19.20;71.20
9544;DHT22;30418;51.45933468;7.33152330;2023-10-09T08:12:42;19.20;71.10
9544;DHT22;30418;51.45933468;7.33152330;2023-10-09T08:15:34;19.20;71.20
9544;DHT22;30418;51.45933468;7.33152330;2023-10-09T08:18:18;19.20;71.20
9544;DHT22;30418;51.45933468;7.33152330;2023-10-09T08:20:55;19.30;71.30
9544;DHT22;30418;51.45933468;7.33152330;2023-10-09T08:23:41;19.30;71.30
9544;DHT22;30418;51.45933468;7.33152330;2023-10-09T08:26:18;19.30;71.40
9544;DHT22;30418;51.45933468;7.33152330;2023-10-09T08:28:56;19.30;71.40
9544;DHT22;30418;51.45933468;7.33152330;2023-10-09T08:31:44;19.30;71.40
9544;DHT22;30418;51.45933468;7.33152330;2023-10-09T08:34:23;19.30;71.30
9544;DHT22;30418;51.45933468;7.33152330;2023-10-09T08:37:11;19.30;71.20
9544;DHT22;30418;51.45933468;7.33152330;2023-10-09T08:39:40;19.40;71.30
9544;DHT22;30418;51.45933468;7.33152330;2023-10-09T08:42:12;19.40;71.40
9544;DHT22;30418;51.45933468;7.33152330;2023-10-09T08:44:41;19.40;71.40
9544;DHT22;30418;51.45933468;7.33152330;2023-10-09T08:47:13;19.40;71.40
9544;DHT22;30418;51.45933468;7.33152330;2023-10-09T08:49:42;19.40;71.40
9544;DHT22;30418;51.45933468;7.33152330;2023-10-09T08:52:10;19.40;71.40
9544;DHT22;30418;51.45933468;7.33152330;2023-10-09T08:54:41;19.40;71.40
9544;DHT22;30418;51.45933468;7.33152330;2023-10-09T08:57:11;19.40;71.40
9544;DHT22;30418;51.45933468;7.33152330;2023-10-09T08:59:45;19.40;71.40
9544;DHT22;30418;51.45933468;7.33152330;2023-10-09T09:02:16;19.40;71.50
9544;DHT22;30418;51.45933468;7.33152330;2023-10-09T09:04:45;19.40;71.50
9544;DHT22;30418;51.45933468;7.33152330;2023-10-09T09:07:28;19.40;71.60
9544;DHT22;30418;51.45933468;7.33152330;2023-10-09T09:09:59;19.40;72.00
9544;DHT22;30418;51.45933468;7.33152330;2023-10-09T09:12:31;19.40;71.70
9544;DHT22;30418;51.45933468;7.33152330;2023-10-09T09:15:13;19.40;71.80
9544;DHT22;30418;51.45933468;7.33152330;2023-10-09T09:17:48;19.40;72.00
9544;DHT22;30418;51.45933468;7.33152330;2023-10-09T09:20:21;19.50;72.10
9544;DHT22;30418;51.45933468;7.33152330;2023-10-09T09:22:55;19.50;72.10
9544;DHT22;30418;51.45933468;7.33152330;2023-10-09T09:25:40;19.60;72.20
9544;DHT22;30418;51.45933468;7.33152330;2023-10-09T09:28:12;19.60;72.50
9544;DHT22;30418;51.45933468;7.33152330;2023-10-09T09:30:46;19.60;72.20
9544;DHT22;30418;51.45933468;7.33152330;2023-10-09T09:33:22;19.60;72.20
9544;DHT22;30418;51.45933468;7.33152330;2023-10-09T09:36:07;19.60;72.50
9544;DHT22;30418;51.45933468;7.33152330;2023-10-09T09:38:38;19.70;72.40
9544;DHT22;30418;51.45933468;7.33152330;2023-10-09T09:41:15;19.70;72.60
9544;DHT22;30418;51.45933468;7.33152330;2023-10-09T09:43:53;19.70;72.70
9544;DHT22;30418;51.45933468;7.33152330;2023-10-09T09:46:24;19.80;72.80
9544;DHT22;30418;51.45933468;7.33152330;2023-10-09T09:49:02;19.80;72.80
9544;DHT22;30418;51.45933468;7.33152330;2023-10-09T09:51:39;19.90;72.90
9544;DHT22;30418;51.45933468;7.33152330;2023-10-09T09:54:09;19.90;72.80
9544;DHT22;30418;51.45933468;7.33152330;2023-10-09T09:56:44;20.00;72.70
9544;DHT22;30418;51.45933468;7.33152330;2023-10-09T09:59:18;20.10;72.80
9544;DHT22;30418;51.45933468;7.33152330;2023-10-09T10:01:50;20.10;72.70
9544;DHT22;30418;51.45933468;7.33152330;2023-10-09T10:04:29;20.10;72.60
9544;DHT22;30418;51.45933468;7.33152330;2023-10-09T10:07:04;20.10;72.40
9544;DHT22;30418;51.45933468;7.33152330;2023-10-09T10:09:37;20.20;72.40
9544;DHT22;30418;51.45933468;7.33152330;2023-10-09T10:12:07;20.20;72.30
9544;DHT22;30418;51.45933468;7.33152330;2023-10-09T10:14:54;20.20;72.20
9544;DHT22;30418;51.45933468;7.33152330;2023-10-09T10:17:26;20.30;72.20
9544;DHT22;30418;51.45933468;7.33152330;2023-10-09T10:20:02;20.30;72.10
9544;DHT22;30418;51.45933468;7.33152330;2023-10-09T10:23:14;20.30;72.00
9544;DHT22;30418;51.45933468;7.33152330;2023-10-09T10:25:44;20.30;72.10
9544;DHT22;30418;51.45933468;7.33152330;2023-10-09T10:28:19;20.40;72.00
9544;DHT22;30418;51.45933468;7.33152330;2023-10-09T10:31:03;20.40;72.00
9544;DHT22;30418;51.45933468;7.33152330;2023-10-09T10:34:04;20.40;71.90
9544;DHT22;30418;51.45933468;7.33152330;2023-10-09T10:36:39;20.50;72.10
9544;DHT22;30418;51.45933468;7.33152330;2023-10-09T10:39:11;20.50;72.00
9544;DHT22;30418;51.45933468;7.33152330;2023-10-09T10:41:55;20.50;71.90
9544;DHT22;30418;51.45933468;7.33152330;2023-10-09T10:44:30;20.50;72.70
9544;DHT22;30418;51.45933468;7.33152330;2023-10-09T10:47:05;20.50;71.80
9544;DHT22;30418;51.45933468;7.33152330;2023-10-09T10:49:50;20.60;71.90
9544;DHT22;30418;51.45933468;7.33152330;2023-10-09T10:52:24;20.60;71.80
9544;DHT22;30418;51.45933468;7.33152330;2023-10-09T10:55:11;20.60;71.60
9544;DHT22;30418;51.45933468;7.33152330;2023-10-09T10:58:16;20.60;71.50
9544;DHT22;30418;51.45933468;7.33152330;2023-10-09T11:00:54;20.70;71.40
9544;DHT22;30418;51.45933468;7.33152330;2023-10-09T11:03:41;20.70;71.30
9544;DHT22;30418;51.45933468;7.33152330;2023-10-09T11:06:27;20.70;71.20
9544;DHT22;30418;51.45933468;7.33152330;2023-10-09T11:09:08;20.70;71.10
9544;DHT22;30418;51.45933468;7.33152330;2023-10-09T11:11:50;20.70;70.90
9544;DHT22;30418;51.45933468;7.33152330;2023-10-09T11:14:22;20.70;70.90
9544;DHT22;30418;51.45933468;7.33152330;2023-10-09T11:16:51;20.80;71.00
9544;DHT22;30418;51.45933468;7.33152330;2023-10-09T11:19:26;20.80;70.90
9544;DHT22;30418;51.45933468;7.33152330;2023-10-09T11:21:59;20.80;70.90
9544;DHT22;30418;51.45933468;7.33152330;2023-10-09T11:24:48;20.80;70.70
9544;DHT22;30418;51.45933468;7.33152330;2023-10-09T11:27:36;20.80;70.60
9544;DHT22;30418;51.45933468;7.33152330;2023-10-09T11:30:07;20.80;70.50
9544;DHT22;30418;51.45933468;7.33152330;2023-10-09T11:32:37;20.90;70.50
9544;DHT22;30418;51.45933468;7.33152330;2023-10-09T11:35:11;20.90;70.50
9544;DHT22;30418;51.45933468;7.33152330;2023-10-09T11:37:42;20.90;70.50
9544;DHT22;30418;51.45933468;7.33152330;2023-10-09T11:40:31;20.90;70.50
9544;DHT22;30418;51.45933468;7.33152330;2023-10-09T11:43:17;21.00;70.60
9544;DHT22;30418;51.45933468;7.33152330;2023-10-09T11:45:44;21.00;70.50
9544;DHT22;30418;51.45933468;7.33152330;2023-10-09T11:48:22;21.00;70.50
9544;DHT22;30418;51.45933468;7.33152330;2023-10-09T11:50:52;21.00;70.50
9544;DHT22;30418;51.45933468;7.33152330;2023-10-09T11:53:24;21.00;70.50
9544;DHT22;30418;51.45933468;7.33152330;2023-10-09T11:56:03;21.00;70.50
9544;DHT22;30418;51.45933468;7.33152330;2023-10-09T11:58:32;21.10;70.60
9544;DHT22;30418;51.45933468;7.33152330;2023-10-09T12:01:10;21.10;70.60
9544;DHT22;30418;51.45933468;7.33152330;2023-10-09T12:03:44;21.10;70.70
9544;DHT22;30418;51.45933468;7.33152330;2023-10-09T12:06:18;21.10;70.60
9544;DHT22;30418;51.45933468;7.33152330;2023-10-09T12:08:50;21.20;70.80
9544;DHT22;30418;51.45933468;7.33152330;2023-10-09T12:11:22;21.20;70.50
9544;DHT22;30418;51.45933468;7.33152330;2023-10-09T12:13:57;21.20;70.40
9544;DHT22;30418;51.45933468;7.33152330;2023-10-09T12:16:28;21.20;70.20
9544;DHT22;30418;51.45933468;7.33152330;2023-10-09T12:19:00;21.20;70.00
9544;DHT22;30418;51.45933468;7.33152330;2023-10-09T12:21:29;21.30;70.90
9544;DHT22;30418;51.45933468;7.33152330;2023-10-09T12:23:58;21.30;69.90
9544;DHT22;30418;51.45933468;7.33152330;2023-10-09T12:26:30;21.30;69.80
9544;DHT22;30418;51.45933468;7.33152330;2023-10-09T12:29:02;21.30;69.80
9544;DHT22;30418;51.45933468;7.33152330;2023-10-09T12:31:38;21.30;69.80
9544;DHT22;30418;51.45933468;7.33152330;2023-10-09T12:34:07;21.30;69.80
9544;DHT22;30418;51.45933468;7.33152330;2023-10-09T12:36:35;21.30;69.80
9544;DHT22;30418;51.45933468;7.33152330;2023-10-09T12:39:04;21.30;69.80
9544;DHT22;30418;51.45933468;7.33152330;2023-10-09T12:41:35;21.30;69.80
9544;DHT22;30418;51.45933468;7.33152330;2023-10-09T12:44:08;21.30;69.60
9544;DHT22;30418;51.45933468;7.33152330;2023-10-09T12:46:42;21.30;69.60
9544;DHT22;30418;51.45933468;7.33152330;2023-10-09T12:49:19;21.30;69.70
9544;DHT22;30418;51.45933468;7.33152330;2023-10-09T12:51:52;21.30;69.60
9544;DHT22;30418;51.45933468;7.33152330;2023-10-09T12:54:21;21.30;69.60
9544;DHT22;30418;51.45933468;7.33152330;2023-10-09T12:56:55;21.40;69.60
9544;DHT22;30418;51.45933468;7.33152330;2023-10-09T12:59:25;21.30;70.40
9544;DHT22;30418;51.45933468;7.33152330;2023-10-09T13:01:53;21.40;69.60
9544;DHT22;30418;51.45933468;7.33152330;2023-10-09T13:04:25;21.40;69.60
9544;DHT22;30418;51.45933468;7.33152330;2023-10-09T13:06:59;21.40;69.70
9544;DHT22;30418;51.45933468;7.33152330;2023-10-09T13:09:31;21.40;69.70
9544;DHT22;30418;51.45933468;7.33152330;2023-10-09T13:12:11;21.40;69.70
9544;DHT22;30418;51.45933468;7.33152330;2023-10-09T13:14:46;21.40;70.50
9544;DHT22;30418;51.45933468;7.33152330;2023-10-09T13:17:17;21.40;69.60
9544;DHT22;30418;51.45933468;7.33152330;2023-10-09T13:19:47;21.50;69.60
9544;DHT22;30418;51.45933468;7.33152330;2023-10-09T13:22:16;21.50;69.50
9544;DHT22;30418;51.45933468;7.33152330;2023-10-09T13:24:44;21.50;69.40
9544;DHT22;30418;51.45933468;7.33152330;2023-10-09T13:27:17;21.50;69.40
9544;DHT22;30418;51.45933468;7.33152330;2023-10-09T13:29:48;21.50;69.40
9544;DHT22;30418;51.45933468;7.33152330;2023-10-09T13:32:19;21.50;69.50
9544;DHT22;30418;51.45933468;7.33152330;2023-10-09T13:34:47;21.50;69.60
9544;DHT22;30418;51.45933468;7.33152330;2023-10-09T13:37:16;21.50;69.60
9544;DHT22;30418;51.45933468;7.33152330;2023-10-09T13:39:49;21.50;69.70
9544;DHT22;30418;51.45933468;7.33152330;2023-10-09T13:42:22;21.50;69.90
9544;DHT22;30418;51.45933468;7.33152330;2023-10-09T13:44:53;21.60;70.10
9544;DHT22;30418;51.45933468;7.33152330;2023-10-09T13:47:22;21.60;70.10
9544;DHT22;30418;51.45933468;7.33152330;2023-10-09T13:49:59;21.60;70.00
9544;DHT22;30418;51.45933468;7.33152330;2023-10-09T13:52:27;21.70;69.90
9544;DHT22;30418;51.45933468;7.33152330;2023-10-09T13:54:58;21.70;69.70
9544;DHT22;30418;51.45933468;7.33152330;2023-10-09T13:57:43;21.70;69.50
9544;DHT22;30418;51.45933468;7.33152330;2023-10-09T14:00:14;21.70;69.40
9544;DHT22;30418;51.45933468;7.33152330;2023-10-09T14:02:47;21.70;69.20
9544;DHT22;30418;51.45933468;7.33152330;2023-10-09T14:05:18;21.70;69.10
9544;DHT22;30418;51.45933468;7.33152330;2023-10-09T14:07:48;21.70;69.00
9544;DHT22;30418;51.45933468;7.33152330;2023-10-09T14:10:17;21.80;69.10
9544;DHT22;30418;51.45933468;7.33152330;2023-10-09T14:12:47;21.80;69.00
9544;DHT22;30418;51.45933468;7.33152330;2023-10-09T14:15:21;21.80;69.00
9544;DHT22;30418;51.45933468;7.33152330;2023-10-09T14:17:49;21.80;69.00
9544;DHT22;30418;51.45933468;7.33152330;2023-10-09T14:20:23;21.80;69.00
9544;DHT22;30418;51.45933468;7.33152330;2023-10-09T14:22:59;21.80;68.90
9544;DHT22;30418;51.45933468;7.33152330;2023-10-09T14:25:34;21.80;68.90